createdAt,value
2022-09-08T00:03:38.562Z,97322.75
2022-09-08T00:08:41.104Z,97322.75
2022-09-08T00:13:44.401Z,97316.78
2022-09-08T00:18:46.474Z,97309.78
2022-09-08T00:23:48.557Z,97295.13
2022-09-08T00:28:50.556Z,97287.53
2022-09-08T00:33:52.326Z,97276.31
2022-09-08T00:38:54.724Z,97277.53
2022-09-08T00:44:02.149Z,97269.44
2022-09-08T00:49:21.928Z,97271.78
2022-09-08T00:54:23.827Z,97268.09
2022-09-08T00:59:26.427Z,97268.22
2022-09-08T01:04:28.013Z,97264.69
2022-09-08T01:10:21.829Z,97246.56
2022-09-08T01:15:27.410Z,97238.03
2022-09-08T01:20:38.227Z,97234.78
2022-09-08T01:25:58.258Z,97235.44
2022-09-08T01:31:03.205Z,97231.81
2022-09-08T01:36:13.410Z,97231.22
2022-09-08T01:41:15.178Z,97235.66
2022-09-08T01:46:16.861Z,97230.56
2022-09-08T01:51:18.493Z,97224.22
2022-09-08T01:56:20.515Z,97234.63
2022-09-08T02:01:22.113Z,97220.28
2022-09-08T02:06:24.969Z,97221.44
2022-09-08T02:11:27.079Z,97212.66
2022-09-08T02:16:29.277Z,97205.16
2022-09-08T02:21:30.840Z,97192.19
2022-09-08T02:26:32.471Z,97188.91
2022-09-08T02:31:34.083Z,97191.69
2022-09-08T02:36:35.722Z,97191.59
2022-09-08T02:41:37.445Z,97188.53
2022-09-08T02:46:40.222Z,97183.63
2022-09-08T02:51:41.892Z,97190.81
2022-09-08T02:56:43.472Z,97177.03
2022-09-08T03:01:45.121Z,97162.56
2022-09-08T03:06:46.794Z,97151.84
2022-09-08T03:11:48.538Z,97153.81
2022-09-08T03:16:50.250Z,97133.88
2022-09-08T03:21:51.810Z,97124.03
2022-09-08T03:26:53.364Z,97121.66
2022-09-08T03:31:54.951Z,97110.56
2022-09-08T03:36:56.612Z,97094.06
2022-09-08T03:41:58.161Z,97098.63
2022-09-08T03:47:00.242Z,97103.75
2022-09-08T03:52:02.314Z,97129.28
2022-09-08T03:57:04.062Z,97124.06
2022-09-08T04:02:05.652Z,97108.50
2022-09-08T04:07:08.668Z,97078.16
2022-09-08T04:12:11.022Z,97112.03
2022-09-08T04:17:12.605Z,97147.34
2022-09-08T04:22:14.269Z,97152.16
2022-09-08T04:27:17.260Z,97155.63
2022-09-08T04:32:20.008Z,97184.50
2022-09-08T04:37:21.849Z,97168.50
2022-09-08T04:42:24.445Z,97130.97
2022-09-08T04:47:26.201Z,97117.28
2022-09-08T04:52:31.024Z,97111.81
2022-09-08T04:57:33.117Z,97110.91
2022-09-08T05:02:34.673Z,97131.69
2022-09-08T05:07:36.184Z,97127.38
2022-09-08T05:12:38.168Z,97123.25
2022-09-08T05:17:39.835Z,97126.09
2022-09-08T05:22:44.964Z,97121.75
2022-09-08T05:27:49.100Z,97127.34
2022-09-08T05:32:50.865Z,97116.50
2022-09-08T05:37:52.437Z,97125.97
2022-09-08T05:42:53.995Z,97123.56
2022-09-08T05:47:55.611Z,97121.50
2022-09-08T05:52:57.235Z,97112.94
2022-09-08T05:58:21.680Z,97110.50
2022-09-08T06:03:20.656Z,97125.47
2022-09-08T06:08:23.859Z,97131.16
2022-09-08T06:13:25.744Z,97138.72
2022-09-08T06:18:27.300Z,97149.47
2022-09-08T06:23:28.889Z,97140.88
2022-09-08T06:28:41.062Z,97132.31
2022-09-08T06:33:43.980Z,97108.41
2022-09-08T06:38:50.163Z,97096.41
2022-09-08T06:43:57.212Z,97121.66
2022-09-08T06:48:59.982Z,97115.84
2022-09-08T06:54:10.633Z,97128.63
2022-09-08T06:59:33.337Z,97136.78
2022-09-08T07:04:55.121Z,97131.91
2022-09-08T07:10:10.908Z,97123.34
2022-09-08T07:15:43.895Z,97184.19
2022-09-08T07:20:45.587Z,97217.75
2022-09-08T07:26:01.041Z,97203.72
2022-09-08T07:31:05.856Z,97193.00
2022-09-08T07:36:32.401Z,97193.78
2022-09-08T07:41:43.835Z,97187.75
2022-09-08T07:47:13.462Z,97200.03
2022-09-08T07:52:46.025Z,97201.53
2022-09-08T07:58:04.281Z,97215.22
2022-09-08T08:03:45.466Z,97204.41
2022-09-08T08:09:06.072Z,97167.31
2022-09-08T08:14:17.087Z,97143.09
2022-09-08T08:19:30.969Z,97181.13
2022-09-08T08:24:54.670Z,97194.03
2022-09-08T08:30:20.368Z,97194.03
2022-09-08T08:35:35.924Z,97188.91
2022-09-08T08:40:59.178Z,97179.88
2022-09-08T08:46:16.129Z,97173.69
2022-09-08T08:51:36.871Z,97155.91
2022-09-08T08:56:43.541Z,97148.91
2022-09-08T09:01:58.120Z,97145.25
2022-09-08T09:07:27.384Z,97145.66
2022-09-08T09:12:56.807Z,97146.09
2022-09-08T09:18:23.378Z,97151.56
2022-09-08T09:24:00.370Z,97146.25
2022-09-08T09:29:22.774Z,97139.53
2022-09-08T09:34:58.103Z,97151.75
2022-09-08T09:40:12.925Z,97131.38
2022-09-08T09:45:29.896Z,97138.50
2022-09-08T09:51:01.787Z,97132.09
2022-09-08T09:56:31.190Z,97131.84
2022-09-08T10:01:47.962Z,97131.66
2022-09-08T10:07:14.405Z,97129.03
2022-09-08T10:12:32.022Z,97130.53
2022-09-08T10:17:51.901Z,97131.75
2022-09-08T10:23:19.440Z,97124.59
2022-09-08T10:28:27.080Z,97128.69
2022-09-08T10:34:14.485Z,97129.97
2022-09-08T10:39:42.528Z,97131.19
2022-09-08T10:44:58.570Z,97132.47
2022-09-08T10:50:19.282Z,97134.69
2022-09-08T10:55:42.766Z,97143.16
2022-09-08T11:01:09.334Z,97149.94
2022-09-08T11:06:28.195Z,97153.56
2022-09-08T11:12:06.514Z,97140.97
2022-09-08T11:17:25.651Z,97136.78
2022-09-08T11:22:36.042Z,97135.84
2022-09-08T11:27:45.840Z,97144.31
2022-09-08T11:32:56.540Z,97143.75
2022-09-08T11:38:19.848Z,97145.03
2022-09-08T11:43:43.124Z,97150.31
2022-09-08T11:54:44.309Z,97154.97
2022-09-08T12:00:14.503Z,97153.06
2022-09-08T12:11:06.208Z,97158.13
2022-09-08T12:16:34.054Z,97163.84
2022-09-08T12:21:55.822Z,97164.22
2022-09-08T12:27:19.261Z,97175.66
2022-09-08T12:32:42.843Z,97166.63
2022-09-08T12:38:13.549Z,97171.84
2022-09-08T12:43:22.014Z,97178.38
2022-09-08T12:48:46.896Z,97173.75
2022-09-08T12:54:12.617Z,97178.72
2022-09-08T12:59:43.470Z,97177.84
2022-09-08T13:05:07.095Z,97166.50
2022-09-08T13:10:11.622Z,97158.19
2022-09-08T13:15:27.328Z,97163.97
2022-09-08T13:20:42.321Z,97153.22
2022-09-08T13:25:53.358Z,97159.47
2022-09-08T13:31:35.583Z,97160.38
2022-09-08T13:36:59.245Z,97163.75
2022-09-08T13:42:22.667Z,97179.34
2022-09-08T13:48:03.147Z,97179.78
2022-09-08T13:53:18.605Z,97182.69
2022-09-08T13:58:33.558Z,97176.84
2022-09-08T14:04:18.806Z,97170.38
2022-09-08T14:09:23.563Z,97174.84
2022-09-08T14:14:30.943Z,97184.41
2022-09-08T14:19:50.902Z,97185.16
2022-09-08T14:25:12.459Z,97183.66
2022-09-08T14:30:22.871Z,97194.03
2022-09-08T14:35:47.875Z,97188.38
2022-09-08T14:40:56.470Z,97206.28
2022-09-08T14:46:28.691Z,97205.88
2022-09-08T14:51:34.338Z,97200.09
2022-09-08T14:56:44.924Z,97201.16
2022-09-08T15:01:50.342Z,97200.72
2022-09-08T15:06:56.443Z,97203.78
2022-09-08T15:12:10.438Z,97209.25
2022-09-08T15:17:12.000Z,97206.47
2022-09-08T15:22:31.392Z,97200.63
2022-09-08T15:27:37.180Z,97210.81
2022-09-08T15:33:01.061Z,97206.66
2022-09-08T15:38:17.631Z,97191.53
2022-09-08T15:43:54.841Z,97184.47
2022-09-08T15:49:08.544Z,97186.97
2022-09-08T15:54:25.919Z,97183.00
2022-09-08T15:59:52.261Z,97177.16
2022-09-08T16:05:12.723Z,97178.84
2022-09-08T16:10:15.503Z,97179.34
2022-09-08T16:15:49.005Z,97186.81
2022-09-08T16:21:19.925Z,97200.31
2022-09-08T16:26:46.084Z,97185.97
2022-09-08T16:31:55.305Z,97177.41
2022-09-08T16:37:22.155Z,97188.75
2022-09-08T16:42:44.228Z,97200.69
2022-09-08T16:47:54.917Z,97206.69
2022-09-08T16:53:16.128Z,97217.88
2022-09-08T16:58:29.337Z,97219.72
2022-09-08T17:04:00.225Z,97227.09
2022-09-08T17:09:39.704Z,97235.91
2022-09-08T17:14:41.766Z,97240.34
2022-09-08T17:19:49.677Z,97245.38
2022-09-08T17:25:10.311Z,97247.41
2022-09-08T17:30:18.255Z,97247.75
2022-09-08T17:35:28.689Z,97239.84
2022-09-08T17:40:39.469Z,97258.63
2022-09-08T17:45:46.854Z,97255.88
2022-09-08T17:51:04.090Z,97261.75
2022-09-08T17:56:36.129Z,97263.38
2022-09-08T18:02:08.272Z,97266.06
2022-09-08T18:07:22.470Z,97273.63
2022-09-08T18:12:28.744Z,97276.38
2022-09-08T18:17:37.427Z,97293.38
2022-09-08T18:22:57.752Z,97291.81
2022-09-08T18:28:42.064Z,97299.28
2022-09-08T18:34:28.501Z,97308.22
2022-09-08T18:39:33.742Z,97314.53
2022-09-08T18:45:00.182Z,97320.69
2022-09-08T18:50:39.087Z,97324.28
2022-09-08T18:55:48.083Z,97335.63
2022-09-08T19:01:09.047Z,97331.88
2022-09-08T19:06:38.849Z,97346.19
2022-09-08T19:11:56.077Z,97360.91
2022-09-08T19:17:23.927Z,97364.34
2022-09-08T19:22:29.225Z,97355.28
2022-09-08T19:27:55.848Z,97363.94
2022-09-08T19:33:43.518Z,97370.97
2022-09-08T19:38:59.133Z,97380.59
2022-09-08T19:49:52.526Z,97368.38
2022-09-08T19:55:01.597Z,97379.41
2022-09-08T20:00:36.004Z,97383.25
2022-09-08T20:05:50.665Z,97393.50
2022-09-08T20:11:05.074Z,97388.06
2022-09-08T20:16:20.989Z,97391.28
2022-09-08T20:21:23.166Z,97391.28
2022-09-08T20:26:31.113Z,97393.88
2022-09-08T20:31:50.628Z,97383.22
2022-09-08T20:37:19.803Z,97385.44
2022-09-08T20:42:36.873Z,97391.00
2022-09-08T20:48:09.776Z,97387.09
2022-09-08T20:53:21.892Z,97390.81
2022-09-08T20:58:27.730Z,97397.44
2022-09-08T21:03:36.589Z,97395.03
2022-09-08T21:08:38.746Z,97400.97
2022-09-08T21:13:53.266Z,97394.53
2022-09-08T21:18:55.415Z,97401.06
2022-09-08T21:24:26.455Z,97402.63
2022-09-08T21:29:40.278Z,97399.56
2022-09-08T21:34:53.170Z,97403.16
2022-09-08T21:40:04.565Z,97394.19
2022-09-08T21:45:07.867Z,97398.59
2022-09-08T21:50:31.101Z,97393.31
2022-09-08T21:55:40.778Z,97392.09
2022-09-08T22:01:02.265Z,97390.84
2022-09-08T22:06:09.769Z,97382.38
2022-09-08T22:11:11.748Z,97392.53
2022-09-08T22:16:33.571Z,97401.91
2022-09-08T22:21:52.642Z,97416.84
2022-09-08T22:27:15.407Z,97415.81
2022-09-08T22:32:38.677Z,97410.53
2022-09-08T22:38:09.432Z,97414.69
2022-09-08T22:43:24.562Z,97415.09
2022-09-08T22:48:51.246Z,97422.72
2022-09-08T22:53:59.306Z,97427.47
2022-09-08T22:59:26.566Z,97426.91
2022-09-08T23:04:36.306Z,97426.31
2022-09-08T23:09:37.833Z,97429.84
2022-09-08T23:15:09.656Z,97425.16
2022-09-08T23:20:31.624Z,97427.50
2022-09-08T23:25:44.328Z,97428.91
2022-09-08T23:30:59.273Z,97431.19
2022-09-08T23:36:24.281Z,97433.72
2022-09-08T23:41:28.510Z,97426.00
2022-09-08T23:46:33.827Z,97431.91
2022-09-08T23:51:43.616Z,97444.19
2022-09-08T23:56:50.788Z,97442.25
